createdAt,value
2019-04-30T00:00:34.715Z,99.99
2019-04-30T00:01:32.871Z,99.99
2019-04-30T00:02:38.343Z,99.99
2019-04-30T00:03:31.772Z,99.99
2019-04-30T00:04:37.255Z,99.99
2019-04-30T00:05:31.556Z,99.99
2019-04-30T00:06:34.575Z,99.99
2019-04-30T00:07:31.362Z,99.99
2019-04-30T00:08:35.552Z,99.99
2019-04-30T00:09:31.275Z,99.99
2019-04-30T00:10:37.034Z,99.99
2019-04-30T00:11:31.081Z,99.99
2019-04-30T00:12:35.368Z,99.99
2019-04-30T00:13:30.854Z,99.99
2019-04-30T00:14:37.241Z,99.99
2019-04-30T00:15:30.663Z,99.99
2019-04-30T00:16:31.068Z,99.99
2019-04-30T00:17:30.609Z,99.99
2019-04-30T00:18:30.824Z,99.99
2019-04-30T00:19:30.419Z,99.99
2019-04-30T00:20:34.606Z,99.99
2019-04-30T00:21:30.229Z,99.99
2019-04-30T00:22:33.941Z,99.99
2019-04-30T00:23:30.941Z,99.99
2019-04-30T00:24:29.923Z,99.99
2019-04-30T00:25:30.867Z,99.99
2019-04-30T00:26:29.758Z,99.99
2019-04-30T00:27:30.327Z,99.99
2019-04-30T00:28:29.599Z,99.99
2019-04-30T00:29:31.030Z,99.99
2019-04-30T00:30:29.469Z,99.99
2019-04-30T00:31:29.340Z,99.99
2019-04-30T00:32:29.259Z,99.99
2019-04-30T00:33:29.216Z,99.99
2019-04-30T00:34:30.839Z,99.99
2019-04-30T00:35:29.012Z,99.99
2019-04-30T00:36:33.991Z,99.99
2019-04-30T00:37:28.841Z,99.99
2019-04-30T00:38:29.472Z,99.99
2019-04-30T00:39:28.711Z,99.99
2019-04-30T00:40:30.084Z,99.99
2019-04-30T00:41:30.269Z,99.99
2019-04-30T00:42:28.911Z,99.99
2019-04-30T00:43:29.389Z,99.99
2019-04-30T00:44:28.568Z,99.99
2019-04-30T00:45:28.243Z,99.99
2019-04-30T00:46:29.431Z,99.99
2019-04-30T00:47:28.051Z,99.99
2019-04-30T00:48:31.237Z,99.99
2019-04-30T00:49:35.847Z,99.99
2019-04-30T00:50:29.075Z,99.99
2019-04-30T00:51:27.775Z,99.99
2019-04-30T00:52:29.433Z,99.99
2019-04-30T00:53:27.532Z,99.99
2019-04-30T00:54:30.675Z,99.99
2019-04-30T00:55:27.355Z,99.99
2019-04-30T00:56:28.319Z,99.99
2019-04-30T00:57:27.301Z,99.99
2019-04-30T00:58:30.198Z,99.99
2019-04-30T00:59:27.018Z,99.99
2019-04-30T01:00:29.624Z,99.99
2019-04-30T01:01:26.861Z,99.99
2019-04-30T01:02:31.767Z,99.99
2019-04-30T01:03:26.767Z,99.99
2019-04-30T01:04:28.098Z,99.99
2019-04-30T01:05:27.065Z,99.99
2019-04-30T01:06:28.624Z,99.99
2019-04-30T01:07:26.581Z,99.99
2019-04-30T01:08:28.549Z,99.99
2019-04-30T01:09:26.258Z,99.99
2019-04-30T01:10:28.279Z,99.99
2019-04-30T01:11:26.056Z,99.99
2019-04-30T01:12:30.977Z,99.99
2019-04-30T01:13:25.880Z,99.99
2019-04-30T01:14:28.192Z,99.99
2019-04-30T01:15:25.789Z,99.99
2019-04-30T01:16:30.180Z,99.99
2019-04-30T01:17:25.539Z,99.99
2019-04-30T01:18:28.597Z,99.99
2019-04-30T01:19:30.011Z,99.99
2019-04-30T01:20:31.042Z,99.99
2019-04-30T01:21:25.319Z,99.99
2019-04-30T01:22:28.021Z,99.99
2019-04-30T01:23:25.041Z,99.99
2019-04-30T01:24:28.378Z,99.99
2019-04-30T01:25:24.877Z,99.99
2019-04-30T01:26:29.641Z,99.99
2019-04-30T01:27:24.713Z,99.99
2019-04-30T01:28:24.647Z,99.99
2019-04-30T01:29:24.564Z,99.99
2019-04-30T01:30:24.596Z,99.99
2019-04-30T01:31:24.383Z,99.99
2019-04-30T01:32:24.371Z,99.99
2019-04-30T01:33:28.429Z,99.99
2019-04-30T01:34:24.209Z,99.99
2019-04-30T01:35:28.278Z,99.99
2019-04-30T01:36:23.985Z,99.99
2019-04-30T01:37:28.289Z,99.99
2019-04-30T01:38:24.817Z,99.99
2019-04-30T01:39:27.689Z,99.99
2019-04-30T01:40:23.704Z,99.99
2019-04-30T01:41:27.471Z,99.99
2019-04-30T01:42:23.519Z,99.99
2019-04-30T01:43:31.711Z,99.99
2019-04-30T01:44:23.363Z,99.99
2019-04-30T01:45:27.551Z,99.99
2019-04-30T01:46:23.236Z,99.99
2019-04-30T01:47:27.694Z,99.99
2019-04-30T01:48:22.974Z,99.99
2019-04-30T01:49:25.628Z,99.99
2019-04-30T01:50:22.811Z,99.99
2019-04-30T01:51:22.736Z,99.99
2019-04-30T01:52:22.696Z,99.99
2019-04-30T01:53:22.561Z,99.99
2019-04-30T01:54:24.399Z,99.99
2019-04-30T01:55:23.506Z,99.99
2019-04-30T01:56:22.314Z,99.99
2019-04-30T01:57:22.233Z,99.99
2019-04-30T01:58:22.196Z,99.99
2019-04-30T01:59:22.079Z,99.99
2019-04-30T02:00:21.985Z,99.99
2019-04-30T02:01:22.012Z,99.99
2019-04-30T02:02:21.819Z,99.99
2019-04-30T02:03:21.738Z,99.99
2019-04-30T02:04:21.757Z,99.99
2019-04-30T02:05:21.571Z,99.99
2019-04-30T02:06:21.488Z,99.99
2019-04-30T02:07:29.429Z,99.99
2019-04-30T02:08:21.325Z,99.99
2019-04-30T02:09:21.257Z,99.99
2019-04-30T02:10:21.257Z,99.99
2019-04-30T02:11:21.079Z,99.99
2019-04-30T02:12:21.861Z,99.99
2019-04-30T02:13:20.973Z,99.99
2019-04-30T02:14:20.839Z,99.99
2019-04-30T02:15:20.782Z,99.99
2019-04-30T02:16:21.166Z,99.99
2019-04-30T02:17:20.693Z,99.99
2019-04-30T02:18:20.508Z,99.99
2019-04-30T02:19:20.431Z,99.99
2019-04-30T02:20:28.686Z,99.99
2019-04-30T02:21:20.249Z,99.99
2019-04-30T02:22:20.177Z,99.99
2019-04-30T02:23:20.092Z,99.99
2019-04-30T02:24:20.014Z,99.99
2019-04-30T02:25:19.919Z,99.99
2019-04-30T02:26:20.853Z,99.99
2019-04-30T02:27:21.595Z,99.99
2019-04-30T02:28:19.672Z,99.99
2019-04-30T02:29:19.680Z,99.99
2019-04-30T02:30:20.849Z,99.99
2019-04-30T02:31:22.992Z,99.99
2019-04-30T02:32:20.847Z,99.99
2019-04-30T02:33:20.111Z,99.99
2019-04-30T02:34:21.763Z,99.99
2019-04-30T02:35:19.513Z,99.99
2019-04-30T02:36:19.875Z,99.99
2019-04-30T02:37:21.084Z,99.99
2019-04-30T02:38:20.164Z,99.99
2019-04-30T02:39:20.404Z,99.99
2019-04-30T02:40:20.204Z,99.99
2019-04-30T02:41:19.361Z,99.99
2019-04-30T02:42:20.246Z,99.99
2019-04-30T02:43:20.379Z,99.99
2019-04-30T02:44:19.712Z,99.99
2019-04-30T02:45:19.824Z,99.99
2019-04-30T02:46:19.232Z,99.99
2019-04-30T02:47:20.259Z,99.99
2019-04-30T02:48:19.408Z,99.99
2019-04-30T02:49:20.184Z,99.99
2019-04-30T02:50:22.269Z,99.99
2019-04-30T02:51:20.099Z,99.99
2019-04-30T02:52:19.594Z,99.99
2019-04-30T02:53:19.909Z,99.99
2019-04-30T02:54:22.959Z,99.99
2019-04-30T02:55:19.455Z,99.99
2019-04-30T02:56:20.088Z,99.99
2019-04-30T02:57:22.860Z,99.99
2019-04-30T02:58:20.817Z,99.99
2019-04-30T02:59:17.126Z,99.99
2019-04-30T03:00:20.017Z,99.99
2019-04-30T03:01:16.952Z,99.99
2019-04-30T03:02:19.449Z,99.99
2019-04-30T03:03:16.789Z,99.99
2019-04-30T03:04:19.421Z,99.99
2019-04-30T03:05:16.611Z,99.99
2019-04-30T03:06:16.627Z,99.99
2019-04-30T03:07:16.449Z,99.99
2019-04-30T03:08:16.372Z,99.99
2019-04-30T03:09:16.290Z,99.99
2019-04-30T03:10:16.252Z,99.99
2019-04-30T03:11:16.118Z,99.99
2019-04-30T03:12:16.070Z,99.99
2019-04-30T03:13:15.950Z,99.99
2019-04-30T03:14:15.882Z,99.99
2019-04-30T03:15:15.871Z,99.99
2019-04-30T03:16:15.703Z,99.99
2019-04-30T03:17:15.623Z,99.99
2019-04-30T03:18:15.583Z,99.99
2019-04-30T03:19:15.485Z,99.99
2019-04-30T03:20:31.319Z,99.99
2019-04-30T03:21:15.402Z,99.99
2019-04-30T03:22:15.208Z,99.99
2019-04-30T03:23:15.222Z,99.99
2019-04-30T03:24:15.078Z,99.99
2019-04-30T03:25:14.967Z,99.99
2019-04-30T03:26:14.928Z,99.99
2019-04-30T03:27:14.789Z,99.99
2019-04-30T03:28:14.717Z,99.99
2019-04-30T03:29:14.665Z,99.99
2019-04-30T03:30:14.542Z,99.99
2019-04-30T03:31:14.465Z,99.99
2019-04-30T03:32:16.431Z,99.99
2019-04-30T03:33:14.299Z,99.99
2019-04-30T03:34:23.280Z,99.99
2019-04-30T03:35:14.163Z,99.99
2019-04-30T03:36:14.052Z,99.99
2019-04-30T03:37:13.964Z,99.99
2019-04-30T03:38:14.913Z,99.99
2019-04-30T03:39:13.809Z,99.99
2019-04-30T03:40:13.712Z,99.99
2019-04-30T03:41:13.709Z,99.99
2019-04-30T03:42:13.547Z,99.99
2019-04-30T03:43:13.473Z,99.99
2019-04-30T03:44:21.454Z,99.99
2019-04-30T03:45:13.302Z,99.99
2019-04-30T03:46:13.318Z,99.99
2019-04-30T03:47:13.134Z,99.99
2019-04-30T03:48:13.125Z,99.99
2019-04-30T03:49:13.623Z,99.99
2019-04-30T03:50:12.940Z,99.99
2019-04-30T03:51:12.811Z,99.99
2019-04-30T03:52:13.533Z,99.99
2019-04-30T03:53:12.636Z,99.99
2019-04-30T03:54:12.584Z,99.99
2019-04-30T03:55:12.473Z,99.99
2019-04-30T03:56:12.465Z,99.99
2019-04-30T03:57:12.305Z,99.99
2019-04-30T03:58:12.275Z,99.99
2019-04-30T03:59:12.151Z,99.99
2019-04-30T04:00:12.056Z,99.99
2019-04-30T04:01:11.987Z,99.99
2019-04-30T04:02:12.864Z,99.99
2019-04-30T04:03:11.810Z,99.99
2019-04-30T04:04:11.841Z,99.99
2019-04-30T04:05:11.649Z,99.99
2019-04-30T04:06:11.610Z,99.99
2019-04-30T04:07:11.483Z,99.99
2019-04-30T04:08:13.478Z,99.99
2019-04-30T04:09:11.331Z,99.99
2019-04-30T04:10:11.344Z,99.99
2019-04-30T04:11:11.149Z,99.99
2019-04-30T04:12:12.079Z,99.99
2019-04-30T04:13:10.985Z,99.99
2019-04-30T04:14:12.006Z,99.99
2019-04-30T04:15:10.816Z,99.99
2019-04-30T04:16:10.778Z,99.99
2019-04-30T04:17:10.646Z,99.99
2019-04-30T04:18:10.944Z,99.99
2019-04-30T04:19:10.487Z,99.99
2019-04-30T04:20:10.894Z,99.99
2019-04-30T04:21:16.314Z,99.99
2019-04-30T04:22:12.260Z,99.99
2019-04-30T04:23:10.148Z,99.99
2019-04-30T04:24:10.684Z,99.99
2019-04-30T04:25:13.212Z,99.99
2019-04-30T04:26:09.905Z,99.99
2019-04-30T04:27:09.915Z,99.99
2019-04-30T04:28:10.198Z,99.99
2019-04-30T04:29:12.409Z,99.99
2019-04-30T04:30:10.725Z,99.99
2019-04-30T04:31:09.599Z,99.99
2019-04-30T04:32:11.488Z,99.99
2019-04-30T04:33:10.248Z,99.99
2019-04-30T04:34:09.437Z,99.99
2019-04-30T04:35:09.900Z,99.99
2019-04-30T04:36:09.225Z,99.99
2019-04-30T04:37:10.105Z,99.99
2019-04-30T04:38:12.271Z,99.99
2019-04-30T04:39:09.812Z,99.99
2019-04-30T04:40:09.388Z,99.99
2019-04-30T04:41:10.372Z,99.99
2019-04-30T04:42:10.147Z,99.99
2019-04-30T04:43:10.351Z,99.99
2019-04-30T04:44:13.083Z,99.99
2019-04-30T04:45:09.860Z,99.99
2019-04-30T04:46:09.283Z,99.99
2019-04-30T04:47:11.657Z,99.99
2019-04-30T04:48:09.599Z,99.99
2019-04-30T04:49:09.000Z,99.99
2019-04-30T04:50:10.268Z,99.99
2019-04-30T04:51:19.831Z,99.99
2019-04-30T04:52:10.185Z,99.99
2019-04-30T04:53:08.935Z,99.99
2019-04-30T04:54:10.158Z,99.99
2019-04-30T04:55:09.776Z,99.99
2019-04-30T04:56:09.870Z,99.99
2019-04-30T04:57:14.973Z,99.99
2019-04-30T04:58:12.404Z,99.99
2019-04-30T04:59:07.270Z,99.99
2019-04-30T05:00:08.294Z,99.99
2019-04-30T05:01:08.665Z,99.99
2019-04-30T05:02:06.956Z,99.99
2019-04-30T05:03:06.851Z,99.99
2019-04-30T05:04:11.467Z,99.99
2019-04-30T05:05:06.804Z,99.99
2019-04-30T05:06:06.592Z,99.99
2019-04-30T05:07:06.499Z,99.99
2019-04-30T05:08:08.451Z,99.99
2019-04-30T05:09:06.333Z,99.99
2019-04-30T05:10:06.275Z,99.99
2019-04-30T05:11:06.194Z,99.99
2019-04-30T05:12:06.090Z,99.99
2019-04-30T05:13:06.210Z,99.99
2019-04-30T05:14:05.926Z,99.99
2019-04-30T05:15:06.049Z,99.99
2019-04-30T05:16:05.761Z,99.99
2019-04-30T05:17:05.827Z,99.99
2019-04-30T05:18:05.592Z,99.99
2019-04-30T05:19:05.635Z,99.99
2019-04-30T05:20:05.493Z,99.99
2019-04-30T05:21:05.405Z,99.99
2019-04-30T05:22:05.266Z,99.99
2019-04-30T05:23:05.247Z,99.99
2019-04-30T05:24:05.101Z,99.99
2019-04-30T05:25:05.023Z,99.99
2019-04-30T05:26:05.028Z,99.99
2019-04-30T05:27:04.849Z,99.99
2019-04-30T05:28:04.766Z,99.99
2019-04-30T05:29:04.752Z,99.99
2019-04-30T05:30:04.625Z,99.99
2019-04-30T05:31:04.514Z,99.99
2019-04-30T05:32:05.485Z,99.99
2019-04-30T05:33:04.353Z,99.99
2019-04-30T05:34:06.357Z,99.99
2019-04-30T05:35:09.487Z,99.99
2019-04-30T05:36:04.102Z,99.99
2019-04-30T05:37:04.039Z,99.99
2019-04-30T05:38:03.990Z,99.99
2019-04-30T05:39:03.855Z,99.99
2019-04-30T05:40:03.793Z,99.99
2019-04-30T05:41:03.815Z,99.99
2019-04-30T05:42:03.613Z,99.99
2019-04-30T05:43:03.529Z,99.99
2019-04-30T05:44:04.544Z,99.99
2019-04-30T05:45:03.380Z,99.99
2019-04-30T05:46:03.282Z,99.99
2019-04-30T05:47:03.240Z,99.99
2019-04-30T05:48:03.117Z,99.99
2019-04-30T05:49:03.144Z,99.99
2019-04-30T05:50:02.971Z,99.99
2019-04-30T05:51:02.870Z,99.99
2019-04-30T05:52:02.863Z,99.99
2019-04-30T05:53:02.702Z,99.99
2019-04-30T05:54:02.619Z,99.99
2019-04-30T05:55:02.627Z,99.99
2019-04-30T05:56:03.331Z,99.99
2019-04-30T05:57:02.371Z,99.99
2019-04-30T05:58:02.408Z,99.99
2019-04-30T05:59:02.207Z,99.99
2019-04-30T06:00:02.146Z,99.99
2019-04-30T06:01:02.226Z,99.99
2019-04-30T06:02:01.962Z,99.99
2019-04-30T06:03:02.034Z,99.99
2019-04-30T06:04:01.840Z,99.99
2019-04-30T06:05:01.919Z,99.99
2019-04-30T06:06:01.640Z,99.99
2019-04-30T06:07:01.649Z,99.99
2019-04-30T06:08:01.468Z,99.99
2019-04-30T06:09:06.666Z,99.99
2019-04-30T06:10:01.315Z,99.99
2019-04-30T06:11:01.266Z,99.99
2019-04-30T06:12:01.134Z,99.99
2019-04-30T06:13:01.077Z,99.99
2019-04-30T06:14:00.999Z,99.99
2019-04-30T06:15:00.919Z,99.99
2019-04-30T06:16:00.908Z,99.99
2019-04-30T06:17:00.728Z,99.99
2019-04-30T06:18:10.463Z,99.99
2019-04-30T06:19:00.563Z,99.99
2019-04-30T06:20:00.494Z,99.99
2019-04-30T06:21:00.526Z,99.99
2019-04-30T06:22:07.780Z,99.99
2019-04-30T06:23:00.266Z,99.99
2019-04-30T06:24:00.329Z,99.99
2019-04-30T06:25:00.087Z,99.99
2019-04-30T06:26:08.749Z,99.99
2019-04-30T06:26:59.938Z,99.99
2019-04-30T06:27:59.839Z,99.99
2019-04-30T06:28:59.954Z,99.99
2019-04-30T06:29:59.677Z,99.99
2019-04-30T06:30:59.761Z,99.99
2019-04-30T06:31:59.506Z,99.99
2019-04-30T06:32:59.578Z,99.99
2019-04-30T06:33:59.338Z,99.99
2019-04-30T06:34:59.447Z,99.99
2019-04-30T06:35:59.174Z,99.99
2019-04-30T06:36:59.589Z,99.99
2019-04-30T06:37:59.195Z,99.99
2019-04-30T06:38:59.061Z,99.99
2019-04-30T06:39:59.148Z,99.99
2019-04-30T06:40:58.941Z,99.99
2019-04-30T06:42:04.907Z,99.99
2019-04-30T06:43:00.670Z,99.99
2019-04-30T06:43:58.766Z,99.99
2019-04-30T06:44:59.142Z,99.99
2019-04-30T06:45:58.952Z,99.99
2019-04-30T06:46:58.846Z,99.99
2019-04-30T06:47:58.787Z,98.75
2019-04-30T06:48:59.485Z,98.66
2019-04-30T06:49:58.778Z,98.80
2019-04-30T06:50:59.238Z,98.61
2019-04-30T06:51:58.797Z,98.23
2019-04-30T06:52:59.439Z,98.99
2019-04-30T06:53:58.682Z,97.85
2019-04-30T06:54:59.565Z,96.61
2019-04-30T06:55:58.969Z,96.94
2019-04-30T06:56:59.565Z,96.56
2019-04-30T06:58:09.318Z,95.79
2019-04-30T06:58:58.924Z,95.56
2019-04-30T06:59:59.470Z,95.27
2019-04-30T07:00:59.425Z,95.65
2019-04-30T07:01:58.959Z,96.13
2019-04-30T07:02:59.015Z,96.18
2019-04-30T07:04:00.601Z,93.50
2019-04-30T07:04:58.695Z,93.88
2019-04-30T07:05:58.552Z,93.12
2019-04-30T07:06:56.676Z,92.69
2019-04-30T07:08:02.593Z,93.64
2019-04-30T07:08:59.516Z,92.16
2019-04-30T07:10:00.485Z,92.16
2019-04-30T07:11:03.931Z,91.35
2019-04-30T07:11:56.340Z,91.53
2019-04-30T07:12:56.356Z,93.64
2019-04-30T07:13:56.119Z,93.64
2019-04-30T07:14:56.054Z,93.07
2019-04-30T07:15:56.169Z,92.35
2019-04-30T07:16:55.946Z,91.83
2019-04-30T07:17:55.877Z,92.69
2019-04-30T07:18:55.725Z,94.22
2019-04-30T07:19:56.932Z,94.17
2019-04-30T07:20:55.563Z,94.17
2019-04-30T07:21:55.597Z,93.40
2019-04-30T07:23:00.765Z,93.40
2019-04-30T07:23:55.400Z,92.35
2019-04-30T07:24:55.264Z,92.30
2019-04-30T07:25:55.167Z,92.88
2019-04-30T07:27:01.034Z,93.74
2019-04-30T07:27:55.014Z,92.79
2019-04-30T07:28:55.541Z,93.69
2019-04-30T07:29:55.064Z,92.45
2019-04-30T07:31:07.617Z,91.25
2019-04-30T07:31:54.689Z,89.43
2019-04-30T07:32:54.643Z,88.86
2019-04-30T07:33:54.535Z,88.57
2019-04-30T07:34:54.484Z,90.10
2019-04-30T07:35:54.371Z,90.39
2019-04-30T07:37:10.857Z,89.62
2019-04-30T07:37:54.564Z,89.05
2019-04-30T07:38:56.601Z,89.53
2019-04-30T07:39:54.068Z,90.20
2019-04-30T07:40:54.090Z,90.10
2019-04-30T07:41:53.899Z,87.81
2019-04-30T07:42:53.820Z,88.04
2019-04-30T07:43:53.765Z,87.23
2019-04-30T07:44:53.658Z,86.79
2019-04-30T07:45:53.597Z,85.30
2019-04-30T07:46:53.517Z,82.23
2019-04-30T07:47:53.424Z,81.95
2019-04-30T07:48:53.347Z,81.23
2019-04-30T07:49:55.952Z,82.15
2019-04-30T07:50:53.205Z,84.59
2019-04-30T07:51:53.755Z,85.84
2019-04-30T07:53:04.896Z,86.61
2019-04-30T07:53:52.957Z,87.56
2019-04-30T07:54:52.876Z,86.41
2019-04-30T07:55:52.986Z,86.08
2019-04-30T07:56:52.755Z,87.80
2019-04-30T07:57:52.643Z,87.13
2019-04-30T07:58:52.765Z,85.79
2019-04-30T07:59:52.485Z,85.64
2019-04-30T08:00:56.172Z,83.82
2019-04-30T08:02:06.661Z,84.34
2019-04-30T08:02:52.251Z,84.25
2019-04-30T08:03:52.289Z,85.21
2019-04-30T08:04:52.191Z,84.15
2019-04-30T08:05:52.126Z,82.96
2019-04-30T08:06:51.979Z,84.01
2019-04-30T08:07:52.090Z,84.30
2019-04-30T08:08:57.064Z,84.97
2019-04-30T08:09:51.707Z,84.53
2019-04-30T08:10:51.648Z,84.58
2019-04-30T08:11:51.549Z,85.19
2019-04-30T08:12:51.857Z,83.47
2019-04-30T08:13:51.655Z,82.54
2019-04-30T08:14:51.320Z,80.53
2019-04-30T08:15:51.259Z,79.09
2019-04-30T08:16:51.247Z,79.86
2019-04-30T08:18:02.908Z,79.38
2019-04-30T08:18:51.054Z,79.09
2019-04-30T08:19:50.941Z,78.03
2019-04-30T08:20:50.910Z,77.23
2019-04-30T08:21:50.789Z,79.14
2019-04-30T08:22:50.718Z,78.57
2019-04-30T08:23:50.678Z,79.82
2019-04-30T08:24:50.570Z,79.82
2019-04-30T08:25:50.507Z,78.92
2019-04-30T08:26:51.418Z,79.49
2019-04-30T08:27:50.345Z,80.22
2019-04-30T08:28:50.265Z,79.74
2019-04-30T08:29:50.311Z,79.41
2019-04-30T08:30:50.127Z,80.76
2019-04-30T08:31:50.041Z,82.19
2019-04-30T08:32:51.071Z,82.09
2019-04-30T08:33:49.890Z,82.42
2019-04-30T08:34:50.203Z,81.08
2019-04-30T08:35:50.076Z,81.02
2019-04-30T08:36:49.753Z,80.20
2019-04-30T08:37:49.837Z,77.95
2019-04-30T08:38:49.674Z,78.05
2019-04-30T08:39:50.581Z,78.02
2019-04-30T08:40:56.138Z,80.27
2019-04-30T08:41:49.385Z,80.18
2019-04-30T08:42:49.702Z,80.14
2019-04-30T08:43:49.682Z,81.04
2019-04-30T08:44:49.213Z,81.52
2019-04-30T08:45:48.997Z,83.05
2019-04-30T08:46:49.301Z,82.76
2019-04-30T08:47:49.422Z,82.04
2019-04-30T08:48:51.601Z,82.27
2019-04-30T08:49:49.987Z,80.30
2019-04-30T08:50:49.412Z,79.24
2019-04-30T08:51:49.224Z,80.40
2019-04-30T08:52:49.905Z,79.24
2019-04-30T08:53:48.740Z,78.05
2019-04-30T08:54:49.615Z,78.44
2019-04-30T08:55:49.194Z,76.42
2019-04-30T08:56:49.897Z,80.20
2019-04-30T08:57:50.059Z,78.80
2019-04-30T08:58:50.130Z,77.59
2019-04-30T08:59:49.505Z,74.81
2019-04-30T09:00:48.549Z,74.43
2019-04-30T09:01:48.739Z,74.94
2019-04-30T09:02:49.318Z,74.98
2019-04-30T09:03:50.895Z,72.16
2019-04-30T09:04:49.295Z,72.34
2019-04-30T09:05:47.491Z,74.30
2019-04-30T09:06:49.032Z,73.63
2019-04-30T09:07:48.655Z,73.15
2019-04-30T09:08:49.004Z,73.15
2019-04-30T09:09:48.866Z,71.19
2019-04-30T09:10:48.925Z,72.44
2019-04-30T09:11:53.072Z,71.77
2019-04-30T09:12:47.113Z,74.79
2019-04-30T09:13:48.669Z,70.97
2019-04-30T09:14:48.877Z,72.89
2019-04-30T09:15:46.772Z,75.57
2019-04-30T09:16:46.764Z,77.25
2019-04-30T09:17:58.873Z,74.37
2019-04-30T09:18:46.742Z,72.86
2019-04-30T09:19:46.471Z,72.83
2019-04-30T09:20:46.787Z,72.73
2019-04-30T09:21:46.335Z,74.40
2019-04-30T09:22:46.361Z,74.11
2019-04-30T09:23:51.897Z,74.73
2019-04-30T09:24:46.169Z,76.50
2019-04-30T09:25:46.061Z,70.43
2019-04-30T09:26:45.976Z,70.17
2019-04-30T09:27:45.925Z,72.47
2019-04-30T09:28:45.835Z,74.90
2019-04-30T09:29:45.768Z,73.75
2019-04-30T09:30:45.719Z,75.45
2019-04-30T09:31:45.628Z,76.82
2019-04-30T09:32:45.559Z,74.01
2019-04-30T09:33:45.617Z,75.02
2019-04-30T09:34:45.409Z,76.31
2019-04-30T09:35:45.464Z,77.01
2019-04-30T09:36:45.269Z,75.04
2019-04-30T09:37:45.193Z,73.73
2019-04-30T09:38:45.237Z,72.38
2019-04-30T09:39:45.057Z,71.55
2019-04-30T09:40:44.991Z,71.75
2019-04-30T09:41:45.055Z,70.30
2019-04-30T09:42:44.837Z,69.24
2019-04-30T09:43:44.861Z,70.94
2019-04-30T09:44:44.697Z,71.04
2019-04-30T09:45:44.645Z,71.96
2019-04-30T09:46:44.567Z,71.96
2019-04-30T09:47:44.526Z,74.43
2019-04-30T09:48:44.413Z,75.38
2019-04-30T09:49:44.439Z,74.71
2019-04-30T09:50:44.479Z,75.38
2019-04-30T09:51:44.199Z,76.57
2019-04-30T09:52:44.365Z,76.09
2019-04-30T09:53:55.533Z,75.13
2019-04-30T09:54:43.976Z,72.86
2019-04-30T09:55:43.921Z,73.06
2019-04-30T09:56:43.836Z,73.83
2019-04-30T09:57:43.927Z,72.41
2019-04-30T09:58:43.683Z,71.98
2019-04-30T09:59:43.736Z,74.19
2019-04-30T10:00:43.552Z,75.31
2019-04-30T10:01:43.465Z,76.50
2019-04-30T10:02:43.550Z,76.25
2019-04-30T10:03:43.669Z,76.44
2019-04-30T10:04:43.604Z,73.85
2019-04-30T10:05:43.194Z,72.60
2019-04-30T10:06:43.100Z,75.10
2019-04-30T10:07:43.024Z,75.81
2019-04-30T10:08:48.293Z,74.79
2019-04-30T10:09:42.878Z,71.94
2019-04-30T10:10:43.395Z,70.68
2019-04-30T10:11:42.792Z,72.61
2019-04-30T10:12:42.663Z,72.71
2019-04-30T10:13:42.805Z,70.98
2019-04-30T10:14:42.523Z,70.40
2019-04-30T10:15:42.665Z,71.59
2019-04-30T10:16:42.376Z,69.82
2019-04-30T10:17:42.480Z,71.26
2019-04-30T10:18:42.242Z,69.92
2019-04-30T10:19:42.289Z,69.60
2019-04-30T10:20:42.110Z,71.42
2019-04-30T10:21:42.038Z,73.02
2019-04-30T10:22:41.951Z,74.11
2019-04-30T10:23:41.883Z,73.86
2019-04-30T10:24:41.855Z,74.15
2019-04-30T10:25:41.757Z,72.61
2019-04-30T10:26:41.684Z,72.67
2019-04-30T10:27:41.694Z,72.61
2019-04-30T10:28:37.815Z,73.09
2019-04-30T10:29:39.540Z,72.65
2019-04-30T10:30:37.624Z,71.34
2019-04-30T10:31:39.024Z,72.59
2019-04-30T10:32:37.403Z,70.66
2019-04-30T10:33:38.634Z,70.95
2019-04-30T10:34:37.209Z,70.95
2019-04-30T10:35:38.515Z,70.21
2019-04-30T10:36:41.170Z,66.81
2019-04-30T10:37:38.715Z,68.74
2019-04-30T10:38:36.905Z,68.19
2019-04-30T10:39:38.941Z,66.75
2019-04-30T10:40:38.803Z,69.15
2019-04-30T10:41:36.694Z,66.81
2019-04-30T10:42:36.648Z,67.68
2019-04-30T10:43:36.553Z,66.71
2019-04-30T10:44:36.661Z,66.81
2019-04-30T10:45:38.635Z,66.88
2019-04-30T10:46:36.473Z,68.32
2019-04-30T10:47:36.277Z,67.35
2019-04-30T10:48:36.277Z,68.13
2019-04-30T10:49:36.138Z,68.35
2019-04-30T10:50:36.117Z,68.48
2019-04-30T10:51:36.012Z,66.94
2019-04-30T10:52:36.102Z,65.75
2019-04-30T10:53:35.870Z,68.35
2019-04-30T10:54:35.910Z,68.41
2019-04-30T10:55:35.742Z,68.57
2019-04-30T10:56:35.721Z,70.84
2019-04-30T10:57:35.594Z,70.07
2019-04-30T10:58:35.552Z,70.21
2019-04-30T10:59:35.530Z,69.34
2019-04-30T11:00:35.396Z,69.47
2019-04-30T11:01:35.317Z,69.02
2019-04-30T11:02:35.415Z,67.68
2019-04-30T11:03:35.174Z,67.00
2019-04-30T11:04:35.158Z,66.24
2019-04-30T11:05:35.162Z,67.00
2019-04-30T11:06:35.245Z,66.33
2019-04-30T11:07:34.892Z,67.03
2019-04-30T11:08:34.821Z,67.03
2019-04-30T11:09:35.879Z,62.45
2019-04-30T11:10:34.710Z,65.27
2019-04-30T11:11:34.612Z,66.94
2019-04-30T11:12:34.592Z,65.40
2019-04-30T11:13:34.475Z,64.86
2019-04-30T11:14:34.476Z,63.34
2019-04-30T11:15:34.333Z,62.96
2019-04-30T11:16:34.520Z,62.79
2019-04-30T11:17:34.364Z,60.86
2019-04-30T11:18:34.305Z,60.55
2019-04-30T11:19:34.187Z,62.15
2019-04-30T11:20:34.283Z,64.47
2019-04-30T11:21:34.124Z,62.22
2019-04-30T11:22:33.999Z,62.19
2019-04-30T11:23:33.949Z,64.47
2019-04-30T11:24:38.078Z,63.06
2019-04-30T11:25:34.573Z,62.19
2019-04-30T11:26:34.174Z,62.45
2019-04-30T11:27:34.168Z,63.31
2019-04-30T11:28:33.606Z,62.64
2019-04-30T11:29:33.516Z,63.06
2019-04-30T11:30:33.678Z,62.45
2019-04-30T11:31:33.475Z,61.84
2019-04-30T11:32:33.314Z,63.31
2019-04-30T11:33:33.580Z,64.37
2019-04-30T11:34:33.035Z,65.94
2019-04-30T11:35:33.188Z,64.12
2019-04-30T11:36:32.914Z,62.48
2019-04-30T11:37:32.828Z,65.66
2019-04-30T11:38:32.936Z,62.54
2019-04-30T11:39:32.687Z,63.12
2019-04-30T11:40:37.205Z,63.34
2019-04-30T11:41:33.398Z,62.06
2019-04-30T11:42:32.491Z,63.12
2019-04-30T11:43:32.425Z,64.31
2019-04-30T11:44:32.644Z,65.17
2019-04-30T11:45:32.276Z,62.83
2019-04-30T11:46:32.481Z,62.41
2019-04-30T11:47:32.141Z,63.41
2019-04-30T11:48:32.257Z,64.79
2019-04-30T11:49:32.000Z,65.69
2019-04-30T11:50:32.066Z,66.97
2019-04-30T11:51:31.877Z,64.76
2019-04-30T11:52:31.876Z,64.02
2019-04-30T11:53:31.727Z,64.11
2019-04-30T11:54:31.888Z,62.28
2019-04-30T11:55:31.588Z,61.41
2019-04-30T11:56:31.632Z,61.35
2019-04-30T11:57:31.454Z,63.95
2019-04-30T11:58:31.419Z,65.91
2019-04-30T11:59:31.315Z,64.69
2019-04-30T12:00:31.431Z,65.47
2019-04-30T12:01:31.188Z,61.58
2019-04-30T12:02:39.288Z,63.98
2019-04-30T12:03:31.037Z,63.02
2019-04-30T12:04:31.140Z,63.12
2019-04-30T12:05:30.937Z,63.18
2019-04-30T12:06:31.003Z,63.18
2019-04-30T12:07:30.766Z,62.63
2019-04-30T12:08:30.892Z,62.73
2019-04-30T12:09:30.624Z,61.07
2019-04-30T12:10:30.681Z,62.90
2019-04-30T12:11:30.496Z,61.10
2019-04-30T12:12:30.415Z,59.62
2019-04-30T12:13:30.583Z,60.71
2019-04-30T12:14:30.287Z,61.99
2019-04-30T12:15:30.387Z,60.16
2019-04-30T12:16:30.435Z,59.39
2019-04-30T12:17:30.066Z,60.26
2019-04-30T12:18:30.001Z,60.16
2019-04-30T12:19:30.221Z,60.35
2019-04-30T12:20:29.878Z,60.26
2019-04-30T12:21:29.813Z,57.53
2019-04-30T12:22:30.036Z,61.16
2019-04-30T12:23:29.655Z,60.27
2019-04-30T12:24:30.433Z,60.94
2019-04-30T12:25:30.438Z,60.97
2019-04-30T12:26:29.472Z,61.29
2019-04-30T12:27:29.382Z,61.10
2019-04-30T12:28:29.745Z,61.77
2019-04-30T12:29:29.296Z,60.55
2019-04-30T12:30:29.176Z,58.65
2019-04-30T12:31:29.733Z,59.52
2019-04-30T12:32:29.841Z,58.26
2019-04-30T12:33:28.978Z,59.80
2019-04-30T12:34:29.108Z,60.48
2019-04-30T12:35:28.842Z,61.06
2019-04-30T12:36:29.021Z,59.64
2019-04-30T12:37:29.051Z,59.58
2019-04-30T12:38:29.914Z,57.50
2019-04-30T12:39:30.097Z,58.63
2019-04-30T12:40:30.033Z,57.92
2019-04-30T12:41:28.433Z,58.95
2019-04-30T12:42:28.734Z,60.39
2019-04-30T12:43:28.312Z,62.45
2019-04-30T12:44:28.239Z,61.22
2019-04-30T12:45:29.419Z,61.65
2019-04-30T12:46:28.919Z,60.00
2019-04-30T12:47:29.560Z,59.11
2019-04-30T12:48:29.565Z,60.39
2019-04-30T12:49:28.816Z,59.94
2019-04-30T12:50:29.177Z,58.42
2019-04-30T12:51:27.721Z,57.52